Time;durP1;ratioP1;P1;durP2;ratioP2;P2;SDS_P1;SDS_P2;PMS_P1;PMS_P2;Temp;Humidity;BMP_temperature;BMP_pressure;BME280_temperature;BME280_humidity;BME280_pressure;Samples;Min_cycle;Max_cycle;Signal;HPM_P1;HPM_P2
2022/03/26 00:00:15;;;;;;;37.63;24.30;;;;;;;4.46;55.61;97560.30;1748774;81;21028;-77
2022/03/26 00:02:44;;;;;;;36.75;22.93;;;;;;;4.43;55.64;97559.24;1725577;81;21534;-77
2022/03/26 00:05:10;;;;;;;39.27;24.87;;;;;;;4.40;55.77;97553.05;1733791;82;21055;-77
2022/03/26 00:07:36;;;;;;;38.98;24.23;;;;;;;4.37;55.70;97560.50;1763973;81;20945;-77
2022/03/26 00:10:04;;;;;;;41.18;23.87;;;;;;;4.33;55.68;97553.95;1764261;81;21050;-77
2022/03/26 00:12:30;;;;;;;39.88;24.23;;;;;;;4.30;55.67;97555.47;1745790;81;21004;-77
2022/03/26 00:14:58;;;;;;;39.53;24.00;;;;;;;4.28;55.72;97545.77;1733866;81;20997;-77
2022/03/26 00:17:25;;;;;;;39.80;23.38;;;;;;;4.27;55.69;97547.17;1763669;81;20938;-77
2022/03/26 00:19:51;;;;;;;38.15;23.60;;;;;;;4.25;55.70;97547.75;1766623;81;20968;-77
2022/03/26 00:22:17;;;;;;;36.50;23.77;;;;;;;4.24;55.75;97543.07;1683277;83;21001;-77
2022/03/26 00:24:43;;;;;;;39.30;23.92;;;;;;;4.21;55.68;97546.66;1740665;81;20930;-77
2022/03/26 00:27:09;;;;;;;34.80;22.32;;;;;;;4.21;55.71;97543.27;1764269;81;21084;-77
2022/03/26 00:29:35;;;;;;;36.30;22.77;;;;;;;4.21;55.64;97544.56;1749149;81;21020;-77
2022/03/26 00:32:03;;;;;;;36.03;22.32;;;;;;;4.19;55.61;97533.56;1735112;81;21343;-77
2022/03/26 00:34:28;;;;;;;38.17;21.48;;;;;;;4.19;55.67;97538.71;1744240;81;21025;-77
2022/03/26 00:36:55;;;;;;;34.27;22.58;;;;;;;4.17;55.64;97543.16;1744393;81;21010;-77
2022/03/26 00:39:21;;;;;;;34.88;21.52;;;;;;;4.16;55.86;97541.52;1744627;81;21032;-77
2022/03/26 00:41:46;;;;;;;38.50;23.07;;;;;;;4.13;55.73;97539.18;1751987;81;20996;-77
2022/03/26 00:44:12;;;;;;;32.85;22.17;;;;;;;4.11;55.74;97535.44;1745351;81;21059;-77
2022/03/26 00:46:38;;;;;;;38.70;22.27;;;;;;;4.10;55.80;97537.66;1754052;81;21312;-77
2022/03/26 00:49:04;;;;;;;35.23;22.93;;;;;;;4.10;55.80;97529.13;1763289;81;20965;-77
2022/03/26 00:51:30;;;;;;;37.70;22.52;;;;;;;4.08;55.75;97525.84;1764312;81;21021;-77
2022/03/26 00:53:55;;;;;;;35.88;22.25;;;;;;;4.08;55.84;97528.42;1764197;81;20930;-77
2022/03/26 00:56:21;;;;;;;33.92;21.73;;;;;;;4.07;55.79;97530.17;1736016;81;21000;-77
2022/03/26 00:58:47;;;;;;;31.87;21.07;;;;;;;4.07;55.87;97534.03;1734403;81;21320;-77
2022/03/26 01:01:13;;;;;;;33.63;21.00;;;;;;;4.05;56.00;97526.87;1733954;82;21024;-77
2022/03/26 01:03:38;;;;;;;37.90;21.48;;;;;;;4.05;56.04;97527.34;1741501;81;21068;-77
2022/03/26 01:06:04;;;;;;;37.93;22.70;;;;;;;4.04;56.08;97528.27;1743230;81;20965;-77
2022/03/26 01:08:31;;;;;;;34.98;21.17;;;;;;;4.03;56.11;97533.06;1763180;81;21304;-77
2022/03/26 01:10:58;;;;;;;37.38;22.17;;;;;;;4.01;56.05;97529.31;1746125;81;21007;-77
2022/03/26 01:13:25;;;;;;;39.53;23.87;;;;;;;4.01;56.01;97527.22;1744640;81;21005;-77
2022/03/26 01:15:52;;;;;;;36.88;23.35;;;;;;;4.00;56.01;97530.72;1757861;81;21415;-77
2022/03/26 01:18:18;;;;;;;34.27;22.50;;;;;;;3.99;56.04;97528.61;1753090;81;21005;-77
2022/03/26 01:20:43;;;;;;;41.37;23.67;;;;;;;3.98;56.03;97528.27;1748041;81;21056;-77
2022/03/26 01:23:09;;;;;;;37.50;23.70;;;;;;;3.98;56.04;97524.87;1751613;81;21406;-77
2022/03/26 01:25:36;;;;;;;37.83;22.75;;;;;;;3.97;56.15;97524.52;1748056;81;20949;-78
2022/03/26 01:28:02;;;;;;;37.40;23.30;;;;;;;3.95;56.16;97518.20;1737945;81;21375;-77
2022/03/26 01:30:28;;;;;;;34.92;22.48;;;;;;;3.94;56.49;97516.57;1728366;83;21395;-77
2022/03/26 01:32:55;;;;;;;40.48;23.27;;;;;;;3.95;56.78;97513.06;1731610;82;21004;-77
2022/03/26 01:35:21;;;;;;;36.00;23.70;;;;;;;3.94;56.87;97508.86;1735266;81;21048;-77
2022/03/26 01:37:48;;;;;;;36.70;22.60;;;;;;;3.96;56.67;97512.13;1722527;81;20987;-77
2022/03/26 01:40:14;;;;;;;36.03;21.00;;;;;;;3.96;56.54;97512.59;1752782;81;21336;-77
2022/03/26 01:42:41;;;;;;;38.63;21.35;;;;;;;3.96;56.50;97514.70;1733502;83;21034;-77
2022/03/26 01:45:13;;;;;;;36.48;22.30;;;;;;;3.94;56.48;97505.00;1734092;82;20963;-77
2022/03/26 01:47:39;;;;;;;29.02;17.80;;;;;;;3.96;56.47;97510.03;1734387;83;20998;-77
2022/03/26 01:50:06;;;;;;;43.40;23.12;;;;;;;3.95;56.46;97509.20;1732520;82;21012;-77
2022/03/26 01:52:32;;;;;;;37.48;21.45;;;;;;;3.95;56.55;97513.53;1760324;81;20944;-77
2022/03/26 01:54:58;;;;;;;37.88;22.42;;;;;;;3.95;56.53;97513.53;1753934;81;21366;-77
2022/03/26 01:57:24;;;;;;;38.02;22.93;;;;;;;3.94;56.53;97511.89;1757873;81;20992;-77
2022/03/26 01:59:50;;;;;;;40.10;23.10;;;;;;;3.94;56.60;97510.61;1725389;82;20944;-77
2022/03/26 02:02:15;;;;;;;38.98;22.95;;;;;;;3.93;56.52;97514.11;1730516;83;21010;-77
2022/03/26 02:04:41;;;;;;;37.30;22.62;;;;;;;3.93;56.47;97513.65;1729602;82;21042;-77
2022/03/26 02:07:07;;;;;;;34.67;22.20;;;;;;;3.93;56.46;97517.50;1753392;81;21367;-77
2022/03/26 02:09:35;;;;;;;35.48;20.95;;;;;;;3.93;56.32;97511.08;1761509;81;21391;-77
2022/03/26 02:12:02;;;;;;;32.80;20.12;;;;;;;3.93;56.20;97502.55;1680373;85;21059;-77
2022/03/26 02:14:28;;;;;;;29.65;18.90;;;;;;;3.94;56.20;97508.04;1707546;84;21352;-77
2022/03/26 02:16:53;;;;;;;32.58;19.55;;;;;;;3.94;56.17;97509.33;1707314;83;21000;-77
2022/03/26 02:19:20;;;;;;;28.57;16.60;;;;;;;3.95;56.19;97510.50;1707290;83;20973;-77
2022/03/26 02:21:49;;;;;;;32.95;18.55;;;;;;;3.96;56.21;97517.27;1707034;84;21060;-77
2022/03/26 02:24:14;;;;;;;29.15;17.62;;;;;;;3.96;56.23;97517.27;1707262;84;21450;-77
2022/03/26 02:26:39;;;;;;;27.87;16.40;;;;;;;3.96;56.41;97516.45;1707422;83;20997;-77
2022/03/26 02:29:10;;;;;;;26.25;16.62;;;;;;;3.97;56.28;97515.52;1707505;84;20953;-77
2022/03/26 02:31:37;;;;;;;25.60;15.53;;;;;;;3.98;56.51;97515.41;1696366;84;21009;-77
2022/03/26 02:34:04;;;;;;;24.55;15.90;;;;;;;3.98;56.60;97514.59;1700992;84;21106;-77
2022/03/26 02:36:30;;;;;;;22.02;15.05;;;;;;;3.99;56.61;97511.08;1744145;82;20964;-77
2022/03/26 02:38:57;;;;;;;28.27;15.65;;;;;;;4.00;56.71;97517.39;1743999;82;21008;-77
2022/03/26 02:41:23;;;;;;;25.10;15.70;;;;;;;4.01;56.84;97515.64;1736239;81;21059;-77
2022/03/26 02:43:48;;;;;;;25.48;15.40;;;;;;;4.01;57.04;97512.60;1732886;82;21371;-77
2022/03/26 02:46:14;;;;;;;26.10;15.23;;;;;;;4.02;57.14;97512.95;1734106;82;21312;-77
2022/03/26 02:48:42;;;;;;;27.37;16.57;;;;;;;4.02;57.24;97504.42;1735974;81;21004;-77
2022/03/26 02:51:09;;;;;;;27.30;16.30;;;;;;;4.02;57.29;97508.28;1740227;81;20966;-77
2022/03/26 02:53:34;;;;;;;26.75;14.35;;;;;;;4.03;57.87;97508.16;1764452;81;20930;-77
2022/03/26 02:56:00;;;;;;;26.75;15.60;;;;;;;4.03;57.98;97503.48;1764358;81;20957;-77
2022/03/26 02:58:26;;;;;;;23.05;15.55;;;;;;;4.04;58.17;97508.52;1749737;81;21327;-77
2022/03/26 03:00:52;;;;;;;27.77;15.58;;;;;;;4.03;58.23;97503.02;1734245;82;21007;-77
2022/03/26 03:03:18;;;;;;;26.00;16.27;;;;;;;4.04;58.05;97511.55;1734528;82;21120;-77
2022/03/26 03:05:46;;;;;;;29.00;16.82;;;;;;;4.03;58.00;97505.59;1746245;81;21029;-77
2022/03/26 03:08:11;;;;;;;26.95;15.93;;;;;;;4.04;58.07;97502.55;1675457;83;20993;-77
2022/03/26 03:10:37;;;;;;;27.98;16.32;;;;;;;4.03;58.28;97505.59;1761730;81;21043;-77
2022/03/26 03:13:03;;;;;;;27.17;16.82;;;;;;;4.04;58.81;97502.55;1761760;81;21417;-77
2022/03/26 03:15:28;;;;;;;28.25;16.52;;;;;;;4.04;58.81;97502.55;1759995;81;21008;-77
2022/03/26 03:17:54;;;;;;;26.12;16.25;;;;;;;4.02;58.92;97500.09;1748122;81;21371;-77
2022/03/26 03:20:20;;;;;;;29.45;17.25;;;;;;;4.04;58.96;97496.12;1730915;81;21382;-77
2022/03/26 03:22:46;;;;;;;25.55;16.23;;;;;;;4.05;59.26;97501.61;1736647;82;20996;-77
2022/03/26 03:25:11;;;;;;;27.62;16.70;;;;;;;4.05;59.31;97499.86;1739059;81;21002;-77
2022/03/26 03:27:38;;;;;;;27.73;16.80;;;;;;;4.07;59.41;97494.16;1687020;84;21076;-77
2022/03/26 03:30:05;;;;;;;30.30;16.60;;;;;;;4.07;59.46;97491.59;1761880;81;21052;-77
2022/03/26 03:32:31;;;;;;;27.82;16.67;;;;;;;4.08;59.47;97497.09;1763223;81;20972;-77
2022/03/26 03:34:57;;;;;;;23.95;16.45;;;;;;;4.09;59.48;97497.44;1687570;83;21051;-77
2022/03/26 03:37:27;;;;;;;25.17;15.23;;;;;;;4.08;59.42;97490.66;1759434;81;21017;-77
2022/03/26 03:39:50;;;;;;;25.75;16.27;;;;;;;4.11;59.51;97493.46;1730601;82;20981;-77
2022/03/26 03:42:16;;;;;;;33.83;18.40;;;;;;;4.10;59.60;97493.93;1747122;81;20964;-77
2022/03/26 03:44:42;;;;;;;29.90;16.37;;;;;;;4.11;59.52;97491.70;1685297;83;21003;-77
2022/03/26 03:47:08;;;;;;;28.02;17.70;;;;;;;4.11;59.73;97491.70;1739257;81;21339;-77
2022/03/26 03:49:35;;;;;;;27.32;16.82;;;;;;;4.13;59.83;97494.16;1730170;82;21047;-77
2022/03/26 03:52:01;;;;;;;29.23;16.80;;;;;;;4.13;59.94;97491.13;1745453;82;20960;-77
2022/03/26 03:54:27;;;;;;;26.80;17.75;;;;;;;4.13;60.12;97489.02;1744082;82;21035;-77
2022/03/26 03:56:53;;;;;;;34.05;19.12;;;;;;;4.12;60.18;97489.48;1747639;81;21063;-77
2022/03/26 03:59:19;;;;;;;26.95;16.82;;;;;;;4.13;60.24;97485.98;1731929;82;21442;-77
2022/03/26 04:01:44;;;;;;;28.77;18.00;;;;;;;4.14;60.62;97484.22;1731740;82;21392;-77
2022/03/26 04:04:10;;;;;;;32.25;20.88;;;;;;;4.13;60.42;97483.88;1730619;81;21101;-77
2022/03/26 04:06:36;;;;;;;32.33;18.35;;;;;;;4.15;60.46;97486.68;1751955;81;20941;-77
2022/03/26 04:09:02;;;;;;;30.68;18.45;;;;;;;4.15;60.51;97486.68;1764158;81;20992;-77
2022/03/26 04:11:28;;;;;;;33.48;19.60;;;;;;;4.15;60.59;97485.39;1712814;83;21012;-77
2022/03/26 04:13:54;;;;;;;30.85;17.23;;;;;;;4.14;60.87;97480.37;1748445;81;20901;-77
2022/03/26 04:16:21;;;;;;;29.63;18.30;;;;;;;4.13;60.91;97479.55;1761008;81;21403;-77
2022/03/26 04:18:48;;;;;;;34.05;18.80;;;;;;;4.13;60.90;97474.88;1735550;82;20992;-77
2022/03/26 04:21:14;;;;;;;34.30;21.27;;;;;;;4.12;61.05;97471.48;1733989;81;20953;-77
2022/03/26 04:23:40;;;;;;;36.98;20.77;;;;;;;4.14;61.22;97473.94;1733870;82;20934;-77
2022/03/26 04:26:08;;;;;;;34.83;21.10;;;;;;;4.15;61.10;97475.58;1733709;83;21003;-77
2022/03/26 04:28:34;;;;;;;41.02;23.18;;;;;;;4.16;61.07;97481.06;1721376;83;21010;-77
2022/03/26 04:30:59;;;;;;;46.75;24.50;;;;;;;4.17;61.07;97473.70;1733948;81;21076;-77
2022/03/26 04:33:25;;;;;;;47.40;25.27;;;;;;;4.23;60.85;97473.26;1734184;83;20964;-77
2022/03/26 04:35:51;;;;;;;45.08;24.35;;;;;;;4.26;60.95;97470.92;1733925;83;21090;-77
2022/03/26 04:38:16;;;;;;;35.75;22.22;;;;;;;4.27;60.94;97472.55;1733628;83;21406;-78
2022/03/26 04:40:42;;;;;;;38.58;21.62;;;;;;;4.26;61.14;97482.03;1759424;81;20933;-77
2022/03/26 04:43:08;;;;;;;38.02;22.93;;;;;;;4.25;61.40;97480.86;1764231;81;20941;-77
2022/03/26 04:45:34;;;;;;;39.78;22.75;;;;;;;4.25;61.37;97483.43;1762824;81;20953;-77
2022/03/26 04:48:00;;;;;;;33.60;21.93;;;;;;;4.25;61.32;97483.43;1685988;84;20988;-77
2022/03/26 04:50:26;;;;;;;36.63;22.98;;;;;;;4.24;61.48;97489.52;1758668;81;21009;-77
2022/03/26 04:52:53;;;;;;;35.58;21.48;;;;;;;4.22;61.58;97489.59;1764429;81;22076;-77
2022/03/26 04:55:19;;;;;;;36.93;21.82;;;;;;;4.22;61.50;97489.59;1764193;81;21069;-77
2022/03/26 04:57:47;;;;;;;32.15;21.20;;;;;;;4.23;61.65;97492.55;1764281;81;21006;-77
2022/03/26 05:00:15;;;;;;;38.23;23.35;;;;;;;4.23;61.65;97495.13;1740877;81;21024;-77
2022/03/26 05:02:41;;;;;;;36.38;22.25;;;;;;;4.27;61.64;97495.70;1734101;82;21074;-77
2022/03/26 05:05:10;;;;;;;37.15;21.80;;;;;;;4.30;61.70;97486.00;1733764;82;21108;-77
2022/03/26 05:07:45;;;;;;;33.60;20.88;;;;;;;4.38;61.64;97496.52;1770405;81;21336;-77
2022/03/26 05:10:22;;;;;;;39.73;21.70;;;;;;;4.45;61.57;97491.74;1686830;83;20980;-77
2022/03/26 05:12:48;;;;;;;35.58;20.88;;;;;;;4.49;61.53;97486.23;1688075;84;21099;-77
2022/03/26 05:15:15;;;;;;;31.30;20.85;;;;;;;4.55;61.35;97491.84;1746873;81;20964;-77
2022/03/26 05:17:41;;;;;;;33.67;21.07;;;;;;;4.58;61.52;97492.45;1746301;81;21013;-77
2022/03/26 05:20:08;;;;;;;34.18;20.52;;;;;;;4.61;61.40;97492.69;1747681;81;21366;-77
2022/03/26 05:22:35;;;;;;;32.40;19.80;;;;;;;4.66;61.61;97498.28;1763983;81;21012;-77
2022/03/26 05:25:02;;;;;;;33.53;20.02;;;;;;;4.68;61.54;97490.80;1763593;81;21014;-77
2022/03/26 05:27:28;;;;;;;32.23;20.43;;;;;;;4.72;61.51;97493.50;1764262;81;21029;-77
2022/03/26 05:29:54;;;;;;;33.67;20.12;;;;;;;4.76;61.85;97492.33;1688551;84;21021;-77
2022/03/26 05:32:19;;;;;;;27.75;18.12;;;;;;;4.80;61.86;97493.72;1764302;81;20969;-77
2022/03/26 05:34:45;;;;;;;32.45;18.70;;;;;;;4.84;62.19;97491.72;1764040;81;20944;-77
2022/03/26 05:37:12;;;;;;;38.40;22.22;;;;;;;4.91;61.92;97495.95;1763888;81;20941;-77
2022/03/26 05:39:38;;;;;;;31.30;19.07;;;;;;;4.98;62.32;97493.23;1761631;81;20997;-77
2022/03/26 05:42:04;;;;;;;32.03;20.17;;;;;;;5.04;61.76;97487.58;1739808;81;20980;-77
2022/03/26 05:44:30;;;;;;;32.63;20.68;;;;;;;5.15;61.92;97485.00;1758363;81;22206;-77
2022/03/26 05:46:56;;;;;;;31.27;19.77;;;;;;;5.29;61.60;97487.30;1759560;80;21036;-77
2022/03/26 05:49:22;;;;;;;29.60;17.65;;;;;;;5.37;61.78;97481.08;1756355;81;21064;-77
2022/03/26 05:51:48;;;;;;;33.95;22.10;;;;;;;5.42;62.23;97469.11;1747257;81;21036;-77
2022/03/26 05:54:15;;;;;;;32.88;18.98;;;;;;;5.47;61.66;97468.73;1747101;81;21339;-77
2022/03/26 05:56:41;;;;;;;35.55;20.35;;;;;;;5.54;61.54;97465.55;1746353;81;20973;-77
2022/03/26 05:59:12;;;;;;;31.45;19.62;;;;;;;5.63;61.49;97469.95;1708707;83;20972;-77
2022/03/26 06:01:38;;;;;;;32.42;18.98;;;;;;;5.73;61.27;97467.45;1709953;84;21334;-77
2022/03/26 06:04:04;;;;;;;29.30;19.35;;;;;;;5.82;60.46;97465.40;1711740;82;21029;-77
2022/03/26 06:06:30;;;;;;;30.68;18.92;;;;;;;5.95;60.83;97469.94;1749553;81;20981;-78
2022/03/26 06:08:56;;;;;;;31.57;18.35;;;;;;;6.05;60.58;97475.16;1751493;81;21003;-77
2022/03/26 06:11:23;;;;;;;32.28;17.82;;;;;;;6.19;60.02;97470.16;1748014;82;21343;-77
2022/03/26 06:13:49;;;;;;;25.88;17.65;;;;;;;6.30;59.43;97469.58;1748502;81;20949;-77
2022/03/26 06:16:15;;;;;;;30.72;19.15;;;;;;;6.40;59.32;97470.94;1748548;82;20926;-78
2022/03/26 06:18:42;;;;;;;31.82;20.40;;;;;;;6.54;58.76;97467.19;1745925;81;20944;-77
2022/03/26 06:21:08;;;;;;;32.95;19.07;;;;;;;6.67;59.15;97458.75;1748569;81;20980;-77
2022/03/26 06:23:34;;;;;;;31.50;19.05;;;;;;;6.74;58.38;97462.43;1748212;82;21047;-77
2022/03/26 06:25:59;;;;;;;31.02;19.27;;;;;;;6.86;58.13;97462.68;1748585;82;21269;-78
2022/03/26 06:28:25;;;;;;;30.68;18.57;;;;;;;6.96;58.21;97458.81;1748572;81;20937;-77
2022/03/26 06:30:51;;;;;;;29.85;19.57;;;;;;;7.05;57.78;97470.95;1748237;82;20977;-78
2022/03/26 06:33:17;;;;;;;26.33;18.10;;;;;;;7.16;57.94;97463.56;1748601;81;20944;-78
2022/03/26 06:35:46;;;;;;;32.13;20.25;;;;;;;7.26;57.29;97463.56;1746776;81;21027;-78
2022/03/26 06:38:12;;;;;;;32.58;19.48;;;;;;;7.38;56.64;97458.61;1745074;81;20989;-78
2022/03/26 06:40:40;;;;;;;34.60;20.92;;;;;;;7.52;56.73;97453.03;1749676;81;20953;-78
2022/03/26 06:43:06;;;;;;;29.48;17.07;;;;;;;7.64;56.32;97460.16;1748224;81;20997;-77
2022/03/26 06:45:33;;;;;;;25.12;17.00;;;;;;;7.71;56.22;97467.73;1748308;81;21347;-78
2022/03/26 06:47:58;;;;;;;29.40;18.27;;;;;;;7.83;55.63;97474.40;1761171;81;21450;-78
2022/03/26 06:50:24;;;;;;;29.80;18.55;;;;;;;7.94;55.21;97475.52;1749399;81;20941;-78
2022/03/26 06:52:51;;;;;;;29.77;19.10;;;;;;;8.05;55.35;97468.91;1748534;82;20956;-78
2022/03/26 06:55:18;;;;;;;29.77;18.48;;;;;;;8.16;54.99;97471.02;1747084;81;21388;-78
2022/03/26 06:57:43;;;;;;;36.03;19.52;;;;;;;8.23;54.74;97476.77;1748564;81;21427;-78
2022/03/26 07:00:11;;;;;;;29.15;19.15;;;;;;;8.32;54.60;97485.00;1752193;81;21306;-78
2022/03/26 07:02:37;;;;;;;30.17;19.40;;;;;;;8.41;54.50;97484.17;1747746;81;20949;-78
2022/03/26 07:05:04;;;;;;;26.90;17.85;;;;;;;8.51;53.94;97489.81;1750716;81;21016;-78
2022/03/26 07:07:30;;;;;;;29.60;18.87;;;;;;;8.61;53.58;97490.58;1758040;81;20956;-78
2022/03/26 07:09:57;;;;;;;32.23;19.27;;;;;;;8.72;53.68;97489.11;1763546;81;21019;-78
2022/03/26 07:12:22;;;;;;;30.05;19.65;;;;;;;8.84;53.64;97494.45;1751910;81;21490;-78
2022/03/26 07:14:48;;;;;;;33.30;18.77;;;;;;;8.94;53.35;97492.61;1752524;81;21000;-78
2022/03/26 07:17:16;;;;;;;27.65;17.30;;;;;;;9.03;52.76;97491.76;1757192;81;20984;-78
2022/03/26 07:19:42;;;;;;;27.67;18.67;;;;;;;9.16;52.71;97489.31;1757336;81;20988;-78
2022/03/26 07:22:08;;;;;;;28.65;18.55;;;;;;;9.25;52.49;97488.42;1753498;81;21013;-78
2022/03/26 07:24:34;;;;;;;29.20;18.25;;;;;;;9.34;52.44;97487.55;1734910;81;21023;-78
2022/03/26 07:27:00;;;;;;;25.92;19.23;;;;;;;9.45;52.00;97493.84;1766468;81;21060;-78
2022/03/26 07:29:26;;;;;;;29.65;18.32;;;;;;;9.55;52.05;97489.86;1765484;81;20950;-78
2022/03/26 07:31:52;;;;;;;29.98;21.45;;;;;;;9.63;51.83;97489.47;1751703;81;21012;-78
2022/03/26 07:34:17;;;;;;;31.52;20.62;;;;;;;9.73;51.74;97491.15;1737904;81;20911;-78
2022/03/26 07:36:44;;;;;;;29.20;19.48;;;;;;;9.81;51.32;97493.83;1762805;81;21028;-78
2022/03/26 07:39:09;;;;;;;31.12;20.65;;;;;;;9.87;51.16;97498.41;1687587;83;21091;-78
2022/03/26 07:41:35;;;;;;;36.00;23.02;;;;;;;9.95;51.15;97495.89;1696998;83;21052;-81
2022/03/26 07:44:01;;;;;;;34.30;22.42;;;;;;;9.96;51.32;97498.01;1694824;84;20985;-77
2022/03/26 07:46:27;;;;;;;34.58;22.52;;;;;;;9.95;51.07;97507.58;1700493;83;21024;-77
2022/03/26 07:48:53;;;;;;;34.73;21.82;;;;;;;9.97;51.36;97507.42;1694235;84;21072;-78
2022/03/26 07:51:19;;;;;;;32.30;23.65;;;;;;;9.99;51.20;97503.71;1686906;84;21036;-77
2022/03/26 07:53:45;;;;;;;37.67;25.60;;;;;;;10.08;51.45;97509.28;1675952;84;20980;-78
2022/03/26 07:56:11;;;;;;;39.23;24.90;;;;;;;10.16;50.95;97509.36;1678735;84;21000;-77
2022/03/26 07:58:37;;;;;;;31.30;22.65;;;;;;;10.22;51.34;97507.47;1671878;84;21024;-78
2022/03/26 08:01:03;;;;;;;36.48;23.70;;;;;;;10.29;50.84;97506.88;1683134;84;20981;-77
2022/03/26 08:03:29;;;;;;;33.33;23.62;;;;;;;10.34;51.20;97508.53;1735811;81;21071;-78
2022/03/26 08:05:56;;;;;;;40.85;24.72;;;;;;;10.36;50.25;97510.00;1742784;81;21414;-78
2022/03/26 08:08:22;;;;;;;35.50;22.98;;;;;;;10.37;50.98;97517.31;1738586;81;20966;-78
2022/03/26 08:10:48;;;;;;;37.23;24.10;;;;;;;10.42;51.14;97515.91;1748798;81;20996;-78
2022/03/26 08:13:14;;;;;;;31.70;23.50;;;;;;;10.49;50.94;97513.50;1743268;81;20967;-78
2022/03/26 08:15:39;;;;;;;33.95;22.02;;;;;;;10.57;50.72;97515.31;1747320;81;21490;-77
2022/03/26 08:18:07;;;;;;;31.27;20.70;;;;;;;10.64;50.84;97516.34;1759610;81;20981;-78
2022/03/26 08:20:33;;;;;;;29.07;19.45;;;;;;;10.79;50.39;97522.13;1734963;81;21040;-78
2022/03/26 08:22:59;;;;;;;26.02;18.80;;;;;;;10.87;50.49;97512.72;1746676;81;20971;-78
2022/03/26 08:28:11;;;;;;;26.93;17.55;;;;;;;11.01;50.39;97511.64;1751788;81;21395;-78
2022/03/26 08:30:37;;;;;;;29.12;18.10;;;;;;;11.08;49.95;97524.37;1755151;81;20972;-77
2022/03/26 08:33:03;;;;;;;26.95;17.75;;;;;;;11.13;50.34;97519.98;1748001;81;21423;-78
2022/03/26 08:35:33;;;;;;;28.45;18.65;;;;;;;11.09;49.58;97514.29;1747938;81;20940;-78
2022/03/26 08:37:59;;;;;;;29.07;18.02;;;;;;;11.05;50.66;97516.04;1686014;84;20996;-78
2022/03/26 08:40:24;;;;;;;28.85;18.92;;;;;;;11.06;50.93;97517.21;1765920;81;20968;-78
2022/03/26 08:42:50;;;;;;;23.73;16.42;;;;;;;11.06;50.46;97517.67;1686734;84;20980;-78
2022/03/26 08:45:16;;;;;;;26.93;18.62;;;;;;;11.10;50.92;97519.00;1705962;84;22013;-78
2022/03/26 08:47:42;;;;;;;30.97;19.27;;;;;;;11.19;51.08;97515.45;1701408;83;21017;-78
2022/03/26 08:50:08;;;;;;;23.25;16.55;;;;;;;11.27;50.50;97510.77;1701497;83;21060;-79
2022/03/26 08:52:34;;;;;;;28.70;18.65;;;;;;;11.36;50.62;97509.31;1705418;83;21043;-78
2022/03/26 08:55:01;;;;;;;24.45;15.78;;;;;;;11.48;50.36;97504.63;1700832;84;21080;-78
2022/03/26 08:57:26;;;;;;;29.95;18.75;;;;;;;11.62;49.90;97500.59;1701277;84;21404;-78
2022/03/26 08:59:52;;;;;;;24.57;18.75;;;;;;;11.77;50.40;97498.17;1701271;84;21394;-78
2022/03/26 09:02:18;;;;;;;25.90;16.90;;;;;;;11.90;50.45;97494.14;1701224;84;21045;-78
2022/03/26 09:04:45;;;;;;;27.67;18.10;;;;;;;11.91;49.77;97491.86;1701306;84;21057;-78
2022/03/26 09:07:13;;;;;;;27.40;17.85;;;;;;;11.93;49.66;97495.61;1701464;84;21145;-78
2022/03/26 09:09:39;;;;;;;25.97;17.17;;;;;;;11.98;49.63;97494.13;1701321;84;21482;-78
2022/03/26 09:12:05;;;;;;;21.07;15.08;;;;;;;12.07;49.35;97488.93;1744681;81;21025;-78
2022/03/26 09:14:31;;;;;;;29.50;18.98;;;;;;;12.13;48.28;97479.14;1743269;81;20945;-78
2022/03/26 09:16:57;;;;;;;26.57;17.87;;;;;;;12.20;49.18;97475.73;1733655;82;20996;-78
2022/03/26 09:19:24;;;;;;;24.98;17.12;;;;;;;12.32;49.29;97467.88;1750354;81;21332;-78
2022/03/26 09:21:50;;;;;;;26.45;18.50;;;;;;;12.44;48.84;97459.71;1763782;81;20968;-78
2022/03/26 09:24:16;;;;;;;28.90;19.27;;;;;;;12.53;48.71;97462.14;1763716;81;21064;-78
2022/03/26 09:26:43;;;;;;;27.82;19.50;;;;;;;12.61;49.01;97467.31;1763644;81;21052;-78
2022/03/26 09:29:09;;;;;;;26.00;17.65;;;;;;;12.62;48.05;97453.30;1762704;80;21059;-78
2022/03/26 09:31:34;;;;;;;27.95;18.07;;;;;;;12.67;48.44;97457.19;1763624;81;21055;-78
2022/03/26 09:34:00;;;;;;;22.07;16.67;;;;;;;12.74;48.69;97460.77;1763699;81;21028;-78
2022/03/26 09:36:26;;;;;;;23.98;17.50;;;;;;;12.76;48.29;97462.22;1686058;84;22093;-78
2022/03/26 09:38:52;;;;;;;24.52;18.15;;;;;;;12.75;48.64;97457.98;1703803;84;20970;-78
2022/03/26 09:41:17;;;;;;;24.32;17.87;;;;;;;12.81;48.52;97466.42;1701259;84;21355;-78
2022/03/26 09:43:43;;;;;;;53.23;35.85;;;;;;;12.85;47.90;97460.38;1701035;84;21048;-78
2022/03/26 09:46:09;;;;;;;27.67;20.40;;;;;;;12.76;47.66;97463.52;1701375;84;21001;-78
2022/03/26 09:48:39;;;;;;;29.00;19.45;;;;;;;12.61;48.11;97457.38;1704404;83;21040;-78
2022/03/26 09:51:04;;;;;;;29.45;18.60;;;;;;;12.50;48.29;97451.22;1703501;84;21396;-78
2022/03/26 09:53:30;;;;;;;25.37;16.12;;;;;;;12.57;48.89;97456.09;1701425;84;21044;-78
2022/03/26 09:55:57;;;;;;;20.70;16.30;;;;;;;12.61;48.01;97450.86;1701299;84;21338;-78
2022/03/26 09:58:23;;;;;;;27.30;17.95;;;;;;;12.67;48.75;97446.27;1701241;84;21068;-78
2022/03/26 10:00:49;;;;;;;21.75;17.75;;;;;;;12.74;48.68;97444.62;1716893;83;20985;-78
2022/03/26 10:03:16;;;;;;;21.40;16.25;;;;;;;12.85;48.39;97444.27;1763841;81;22028;-78
2022/03/26 10:05:42;;;;;;;24.67;16.80;;;;;;;12.99;48.99;97442.70;1763685;81;21352;-78
2022/03/26 10:08:20;;;;;;;22.87;15.30;;;;;;;13.15;48.37;97432.67;1687309;84;21044;-78
2022/03/26 10:10:47;;;;;;;20.25;14.55;;;;;;;13.20;47.73;97449.49;1706887;84;21040;-78
2022/03/26 10:13:35;;;;;;;19.55;12.98;;;;;;;13.24;47.85;97435.60;1702755;83;21012;-78
2022/03/26 10:16:12;;;;;;;22.13;17.15;;;;;;;13.34;47.79;97428.83;1662393;85;21056;-78
2022/03/26 10:18:41;;;;;;;21.97;15.75;;;;;;;13.48;47.46;97426.78;1681158;84;21005;-78
2022/03/26 10:21:10;;;;;;;22.70;15.98;;;;;;;13.55;47.02;97419.08;1701352;84;20997;-78
2022/03/26 10:23:36;;;;;;;22.35;13.43;;;;;;;13.61;47.10;97424.90;1701409;84;21103;-78
2022/03/26 10:26:08;;;;;;;19.73;13.08;;;;;;;13.61;46.62;97419.19;1716714;83;21403;-78
2022/03/26 10:28:34;;;;;;;20.60;13.95;;;;;;;13.57;46.11;97416.61;1764573;80;20985;-78
2022/03/26 10:34:11;;;;;;;19.48;13.40;;;;;;;13.61;45.85;97404.81;1701557;83;21077;-78
2022/03/26 10:36:43;;;;;;;24.15;13.85;;;;;;;13.67;45.95;97415.08;1701345;84;21103;-78
2022/03/26 10:39:21;;;;;;;18.67;12.18;;;;;;;13.71;46.34;97413.23;1701455;84;21087;-78
2022/03/26 10:41:48;;;;;;;15.38;12.85;;;;;;;13.75;44.90;97409.28;1701063;84;20993;-78
2022/03/26 10:44:17;;;;;;;18.85;12.93;;;;;;;13.68;44.55;97401.03;1701195;84;21021;-78
2022/03/26 10:46:50;;;;;;;19.17;14.28;;;;;;;13.72;44.94;97403.11;1688823;83;21054;-79
2022/03/26 10:49:32;;;;;;;19.27;12.88;;;;;;;13.79;44.91;97407.12;1670846;84;20981;-78
2022/03/26 10:52:07;;;;;;;20.52;15.08;;;;;;;13.89;45.94;97405.57;1671577;84;21498;-79
2022/03/26 10:54:33;;;;;;;32.03;18.77;;;;;;;14.07;45.56;97402.13;1689726;84;21448;-78
2022/03/26 10:57:01;;;;;;;26.82;18.27;;;;;;;14.17;45.51;97395.34;1692081;84;21081;-78
2022/03/26 10:59:28;;;;;;;19.02;14.33;;;;;;;14.30;45.12;97403.35;1696318;84;21041;-78
2022/03/26 11:01:54;;;;;;;39.08;29.42;;;;;;;14.33;44.43;97391.25;1696513;84;20942;-78
2022/03/26 11:04:21;;;;;;;30.37;22.58;;;;;;;14.42;43.61;97402.73;1692525;84;21075;-78
2022/03/26 11:06:48;;;;;;;17.65;12.50;;;;;;;14.50;43.69;97398.45;1694934;84;21075;-79
2022/03/26 11:09:15;;;;;;;32.65;19.87;;;;;;;14.56;41.59;97401.63;1683599;84;21066;-79
2022/03/26 11:11:42;;;;;;;27.10;20.48;;;;;;;14.59;43.00;97399.45;1683442;85;21415;-79
2022/03/26 11:14:18;;;;;;;19.55;12.70;;;;;;;14.54;42.87;97393.16;1684209;85;21063;-78
2022/03/26 11:17:15;;;;;;;18.70;13.55;;;;;;;14.63;42.72;97381.09;1684099;85;21420;-79
2022/03/26 11:20:08;;;;;;;62.10;41.45;;;;;;;14.77;43.10;97376.02;1692188;84;21391;-78
2022/03/26 11:23:08;;;;;;;23.10;15.93;;;;;;;14.88;42.62;97372.94;1687982;84;21097;-79
2022/03/26 11:26:15;;;;;;;17.95;11.93;;;;;;;15.05;42.85;97370.41;1688771;84;21049;-78